createdAt,value
2023-02-28T00:01:52.189Z,7.13
2023-02-28T00:06:54.352Z,10.32
2023-02-28T00:11:57.958Z,14.68
2023-02-28T00:17:00.144Z,9.27
2023-02-28T00:22:02.387Z,11.32
2023-02-28T00:27:05.932Z,11.68
2023-02-28T00:32:08.138Z,7.93
2023-02-28T00:37:11.742Z,6.47
2023-02-28T00:42:15.356Z,8.25
2023-02-28T00:47:17.656Z,8.63
2023-02-28T00:52:20.054Z,7.30
2023-02-28T00:57:24.061Z,10.50
2023-02-28T01:02:26.261Z,5.18
2023-02-28T01:07:28.362Z,9.50
2023-02-28T01:12:31.929Z,8.38
2023-02-28T01:17:34.076Z,6.05
2023-02-28T01:22:36.483Z,13.70
2023-02-28T01:27:40.112Z,12.77
2023-02-28T01:32:42.242Z,7.15
2023-02-28T01:37:44.588Z,8.70
2023-02-28T01:42:48.222Z,7.88
2023-02-28T01:47:53.469Z,7.55
2023-02-28T01:52:58.452Z,7.70
2023-02-28T01:58:05.653Z,6.72
2023-02-28T02:08:14.378Z,8.18
2023-02-28T02:13:47.138Z,7.82
2023-02-28T02:18:54.457Z,5.55
2023-02-28T02:29:48.137Z,9.10
2023-02-28T02:35:02.021Z,7.35
2023-02-28T02:40:14.801Z,4.93
2023-02-28T02:45:23.897Z,5.55
2023-02-28T02:50:32.556Z,5.25
2023-02-28T02:55:38.790Z,6.82
2023-02-28T03:00:44.745Z,5.97
2023-02-28T03:05:51.191Z,6.20
2023-02-28T03:10:58.511Z,5.10
2023-02-28T03:16:24.734Z,7.50
2023-02-28T03:21:33.098Z,6.77
2023-02-28T03:26:40.779Z,7.00
2023-02-28T03:31:48.824Z,8.50
2023-02-28T03:36:56.252Z,6.38
2023-02-28T03:42:01.056Z,6.82
2023-02-28T03:47:08.869Z,6.75
2023-02-28T03:52:17.824Z,5.63
2023-02-28T03:57:28.567Z,5.03
2023-02-28T04:02:31.355Z,7.60
2023-02-28T04:07:35.526Z,5.38
2023-02-28T04:12:37.783Z,8.77
2023-02-28T04:17:39.963Z,7.63
2023-02-28T04:22:43.564Z,5.80
2023-02-28T04:27:45.654Z,5.40
2023-02-28T04:32:47.723Z,7.05
2023-02-28T04:37:51.194Z,9.07
2023-02-28T04:42:53.312Z,8.20
2023-02-28T04:47:55.477Z,9.73
2023-02-28T04:52:59.590Z,8.70
2023-02-28T04:58:01.830Z,7.93
2023-02-28T05:03:04.089Z,8.32
2023-02-28T05:08:07.655Z,9.63
2023-02-28T05:13:12.690Z,6.28
2023-02-28T05:18:14.906Z,8.10
2023-02-28T05:23:20.846Z,7.07
2023-02-28T05:28:23.198Z,8.65
2023-02-28T05:33:25.296Z,6.10
2023-02-28T05:38:28.797Z,8.52
2023-02-28T05:43:30.942Z,9.70
2023-02-28T05:48:33.712Z,7.30
2023-02-28T05:53:37.465Z,7.53
2023-02-28T05:58:39.607Z,6.60
2023-02-28T06:03:41.774Z,7.07
2023-02-28T06:08:45.420Z,10.63
2023-02-28T06:13:47.781Z,13.98
2023-02-28T06:18:49.936Z,10.15
2023-02-28T06:23:53.506Z,13.40
2023-02-28T06:28:56.366Z,13.60
2023-02-28T06:34:01.687Z,13.25
2023-02-28T06:39:05.464Z,17.67
2023-02-28T06:44:13.469Z,11.48
2023-02-28T06:49:16.467Z,10.80
2023-02-28T06:54:20.173Z,12.50
2023-02-28T06:59:22.750Z,13.25
2023-02-28T07:04:24.973Z,14.20
2023-02-28T07:09:28.682Z,8.60
2023-02-28T07:14:30.821Z,9.80
2023-02-28T07:19:33.159Z,6.82
2023-02-28T07:24:36.687Z,7.53
2023-02-28T07:29:38.946Z,12.00
2023-02-28T07:34:41.080Z,5.95
2023-02-28T07:39:44.597Z,5.97
2023-02-28T07:44:47.664Z,7.20
2023-02-28T07:49:49.914Z,6.50
2023-02-28T07:54:53.845Z,7.18
2023-02-28T07:59:55.987Z,7.30
2023-02-28T08:04:58.247Z,9.25
2023-02-28T08:10:01.778Z,28.48
2023-02-28T08:15:04.514Z,7.65
2023-02-28T08:20:08.185Z,5.72
2023-02-28T08:25:11.890Z,7.97
2023-02-28T08:30:15.419Z,6.78
2023-02-28T08:35:17.993Z,6.35
2023-02-28T08:40:21.814Z,9.35
2023-02-28T08:45:24.083Z,5.97
2023-02-28T08:50:26.285Z,5.50
2023-02-28T08:55:29.814Z,4.97
2023-02-28T09:00:31.915Z,4.30
2023-02-28T09:05:34.245Z,5.57
2023-02-28T09:10:38.000Z,5.78
2023-02-28T09:15:40.303Z,8.07
2023-02-28T09:20:43.212Z,4.88
2023-02-28T09:25:51.873Z,4.28
2023-02-28T09:30:55.736Z,5.43
2023-02-28T09:36:02.660Z,7.07
2023-02-28T09:46:34.372Z,3.97
2023-02-28T09:51:46.638Z,4.47
2023-02-28T09:56:53.327Z,4.85
2023-02-28T10:02:04.734Z,4.72
2023-02-28T10:07:18.376Z,4.85
2023-02-28T10:12:22.098Z,6.88
2023-02-28T10:17:31.110Z,7.15
2023-02-28T10:22:39.712Z,4.72
2023-02-28T10:27:43.446Z,7.22
2023-02-28T10:32:51.812Z,5.18
2023-02-28T10:37:57.405Z,4.45
2023-02-28T10:43:02.949Z,9.45
2023-02-28T10:48:07.576Z,6.13
2023-02-28T10:53:26.002Z,6.22
2023-02-28T10:58:32.327Z,5.43
2023-02-28T11:03:36.428Z,4.37
2023-02-28T11:08:47.894Z,4.68
2023-02-28T11:13:54.217Z,5.72
2023-02-28T11:18:58.463Z,5.73
2023-02-28T11:24:05.005Z,4.45
2023-02-28T11:29:18.347Z,5.03
2023-02-28T11:34:29.417Z,9.68
2023-02-28T11:39:32.385Z,4.10
2023-02-28T11:44:49.231Z,4.28
2023-02-28T11:50:04.650Z,5.07
2023-02-28T11:55:18.333Z,5.22
2023-02-28T12:00:37.386Z,3.50
2023-02-28T12:05:44.919Z,6.75
2023-02-28T12:11:01.398Z,5.97
2023-02-28T12:16:43.345Z,5.30
2023-02-28T12:22:12.712Z,6.53
2023-02-28T12:27:18.373Z,5.10
2023-02-28T12:32:27.833Z,9.70
2023-02-28T12:37:37.617Z,9.88
2023-02-28T12:42:45.258Z,5.63
2023-02-28T12:47:56.092Z,6.35
2023-02-28T12:53:04.306Z,6.45
2023-02-28T12:58:14.138Z,5.60
2023-02-28T13:03:53.171Z,4.10
2023-02-28T13:09:09.661Z,5.30
2023-02-28T13:14:27.829Z,4.17
2023-02-28T13:19:34.754Z,5.50
2023-02-28T13:24:55.536Z,5.05
2023-02-28T13:29:57.845Z,6.20
2023-02-28T13:35:38.270Z,5.18
2023-02-28T13:40:40.715Z,6.75
2023-02-28T13:46:10.855Z,7.25
2023-02-28T13:51:45.248Z,6.50
2023-02-28T13:57:01.440Z,6.00
2023-02-28T14:02:45.964Z,4.80
2023-02-28T14:07:53.559Z,5.13
2023-02-28T14:13:02.323Z,5.43
2023-02-28T14:18:15.592Z,4.10
2023-02-28T14:23:36.301Z,6.25
2023-02-28T14:28:51.848Z,4.85
2023-02-28T14:34:18.508Z,6.53
2023-02-28T14:39:25.050Z,5.22
2023-02-28T14:44:29.417Z,5.28
2023-02-28T14:49:35.282Z,6.13
2023-02-28T14:54:39.680Z,5.18
2023-02-28T14:59:41.909Z,5.95
2023-02-28T15:04:44.197Z,5.68
2023-02-28T15:09:47.967Z,4.72
2023-02-28T15:14:52.177Z,6.03
2023-02-28T15:19:55.540Z,5.10
2023-02-28T15:24:59.850Z,6.43
2023-02-28T15:30:07.992Z,5.05
2023-02-28T15:35:26.354Z,6.45
2023-02-28T15:40:33.289Z,7.63
2023-02-28T15:45:39.171Z,8.18
2023-02-28T15:50:42.203Z,7.45
2023-02-28T15:55:46.548Z,5.45
2023-02-28T16:01:07.069Z,4.32
2023-02-28T16:06:34.815Z,3.47
2023-02-28T16:11:41.655Z,4.32
2023-02-28T16:16:45.720Z,5.68
2023-02-28T16:21:48.036Z,4.10
2023-02-28T16:26:54.979Z,5.55
2023-02-28T16:31:58.024Z,4.70
2023-02-28T16:37:00.229Z,4.35
2023-02-28T16:42:04.030Z,4.07
2023-02-28T16:47:06.238Z,6.03
2023-02-28T16:52:08.537Z,2.65
2023-02-28T16:57:23.544Z,3.88
2023-02-28T17:07:35.223Z,6.10
2023-02-28T17:12:38.762Z,6.43
2023-02-28T17:17:42.526Z,4.13
2023-02-28T17:22:44.979Z,5.82
2023-02-28T17:27:48.645Z,6.10
2023-02-28T17:32:50.968Z,6.47
2023-02-28T17:37:53.426Z,9.23
2023-02-28T17:42:57.023Z,6.53
2023-02-28T17:47:59.133Z,8.45
2023-02-28T17:53:01.523Z,6.32
2023-02-28T17:58:05.258Z,7.32
2023-02-28T18:03:07.495Z,5.85
2023-02-28T18:08:11.464Z,8.93
2023-02-28T18:13:14.983Z,3.97
2023-02-28T18:18:17.118Z,3.88
2023-02-28T18:23:19.224Z,9.55
2023-02-28T18:28:22.750Z,4.00
2023-02-28T18:33:24.850Z,6.30
2023-02-28T18:38:27.230Z,9.02
2023-02-28T18:43:33.192Z,6.82
2023-02-28T18:48:35.991Z,7.40
2023-02-28T18:53:40.267Z,8.40
2023-02-28T18:58:44.041Z,8.88
2023-02-28T19:03:46.200Z,8.23
2023-02-28T19:08:48.565Z,9.60
2023-02-28T19:13:52.246Z,8.45
2023-02-28T19:18:54.918Z,6.75
2023-02-28T19:23:57.061Z,11.93
2023-02-28T19:29:02.785Z,10.82
2023-02-28T19:34:04.918Z,8.32
2023-02-28T19:39:07.044Z,12.65
2023-02-28T19:44:10.578Z,12.13
2023-02-28T19:49:12.624Z,12.23
2023-02-28T19:54:14.730Z,11.80
2023-02-28T19:59:21.534Z,13.20
2023-02-28T20:09:30.568Z,10.27
2023-02-28T20:14:34.161Z,9.13
2023-02-28T20:19:36.394Z,8.02
2023-02-28T20:24:38.595Z,14.95
2023-02-28T20:29:42.304Z,50.13
2023-02-28T20:34:44.449Z,53.28
2023-02-28T20:39:46.589Z,48.65
2023-02-28T20:44:50.153Z,25.63
2023-02-28T20:49:52.274Z,21.73
2023-02-28T20:54:54.426Z,23.02
2023-02-28T20:59:57.968Z,12.63
2023-02-28T21:05:00.118Z,16.45
2023-02-28T21:10:02.274Z,24.70
2023-02-28T21:15:06.971Z,24.88
2023-02-28T21:20:10.446Z,23.02
2023-02-28T21:25:12.556Z,20.67
2023-02-28T21:30:17.483Z,18.13
2023-02-28T21:35:19.646Z,17.83
2023-02-28T21:40:21.881Z,21.73
2023-02-28T21:45:25.620Z,20.67
2023-02-28T21:50:27.744Z,34.45
2023-02-28T21:55:30.037Z,39.10
2023-02-28T22:00:33.542Z,27.75
2023-02-28T22:05:35.687Z,27.25
2023-02-28T22:10:37.818Z,20.45
2023-02-28T22:15:41.390Z,26.35
2023-02-28T22:20:43.525Z,22.10
2023-02-28T22:25:45.724Z,17.42
2023-02-28T22:30:50.667Z,17.85
2023-02-28T22:35:52.905Z,17.17
2023-02-28T22:40:56.946Z,18.02
2023-02-28T22:46:04.073Z,16.58
2023-02-28T22:56:11.410Z,17.05
2023-02-28T23:01:17.075Z,12.45
2023-02-28T23:06:22.604Z,13.98
2023-02-28T23:11:27.266Z,14.43
2023-02-28T23:16:33.828Z,16.13
2023-02-28T23:21:36.703Z,14.68
2023-02-28T23:26:41.167Z,13.18
2023-02-28T23:31:45.362Z,11.00
2023-02-28T23:36:47.582Z,12.82
2023-02-28T23:41:50.246Z,12.77
2023-02-28T23:46:54.115Z,12.55
2023-02-28T23:51:56.245Z,10.95
2023-02-28T23:56:58.598Z,13.23
